createdAt,value
2018-08-24T00:01:32.209Z,21.12
2018-08-24T00:02:32.179Z,21.11
2018-08-24T00:04:25.004Z,20.93
2018-08-24T00:05:24.954Z,20.82
2018-08-24T00:07:17.818Z,20.40
2018-08-24T00:08:17.733Z,20.19
2018-08-24T00:10:10.579Z,20.00
2018-08-24T00:11:10.527Z,20.00
2018-08-24T00:13:03.859Z,19.58
2018-08-24T00:14:03.815Z,19.63
2018-08-24T00:15:56.613Z,19.54
2018-08-24T00:16:56.598Z,19.51
2018-08-24T00:18:49.411Z,19.54
2018-08-24T00:19:49.360Z,19.45
2018-08-24T00:21:42.182Z,19.54
2018-08-24T00:22:42.185Z,19.58
2018-08-24T00:24:34.975Z,19.49
2018-08-24T00:25:34.930Z,19.48
2018-08-24T00:27:27.739Z,19.45
2018-08-24T00:28:27.711Z,19.51
2018-08-24T00:30:20.540Z,19.54
2018-08-24T00:31:20.488Z,19.54
2018-08-24T00:33:13.305Z,19.49
2018-08-24T00:34:13.295Z,19.49
2018-08-24T00:36:06.109Z,19.56
2018-08-24T00:37:06.065Z,19.54
2018-08-24T00:38:59.391Z,19.48
2018-08-24T00:39:59.350Z,19.56
2018-08-24T00:41:52.155Z,19.54
2018-08-24T00:42:52.146Z,19.54
2018-08-24T00:44:44.964Z,19.49
2018-08-24T00:45:44.911Z,19.47
2018-08-24T00:47:38.215Z,19.44
2018-08-24T00:48:38.182Z,19.33
2018-08-24T00:50:31.525Z,19.48
2018-08-24T00:51:31.457Z,19.31
2018-08-24T00:53:24.270Z,19.26
2018-08-24T00:54:24.238Z,19.14
2018-08-24T00:56:17.065Z,19.12
2018-08-24T00:57:17.016Z,19.00
2018-08-24T00:59:09.847Z,18.93
2018-08-24T01:00:09.788Z,18.90
2018-08-24T01:02:02.618Z,18.88
2018-08-24T01:03:02.587Z,18.80
2018-08-24T01:04:55.427Z,18.74
2018-08-24T01:05:55.363Z,18.77
2018-08-24T01:07:48.178Z,18.83
2018-08-24T01:08:48.134Z,18.71
2018-08-24T01:10:40.978Z,18.56
2018-08-24T01:11:40.913Z,18.47
2018-08-24T01:13:33.746Z,18.31
2018-08-24T01:14:33.685Z,18.40
2018-08-24T01:16:26.526Z,18.35
2018-08-24T01:17:26.491Z,18.38
2018-08-24T01:19:19.791Z,18.40
2018-08-24T01:20:19.752Z,18.28
2018-08-24T01:22:12.565Z,18.26
2018-08-24T01:23:12.518Z,18.25
2018-08-24T01:25:05.363Z,18.22
2018-08-24T01:26:05.316Z,18.22
2018-08-24T01:27:58.121Z,18.25
2018-08-24T01:28:58.078Z,18.25
2018-08-24T01:30:50.936Z,18.33
2018-08-24T01:31:50.878Z,18.26
2018-08-24T01:33:43.706Z,18.34
2018-08-24T01:34:43.661Z,18.25
2018-08-24T01:36:36.488Z,18.35
2018-08-24T01:37:36.438Z,18.22
2018-08-24T01:39:29.262Z,18.26
2018-08-24T01:40:29.248Z,18.34
2018-08-24T01:42:22.054Z,18.31
2018-08-24T01:43:22.008Z,18.31
2018-08-24T01:45:15.314Z,18.31
2018-08-24T01:46:15.278Z,18.37
2018-08-24T01:48:08.106Z,18.31
2018-08-24T01:49:08.067Z,18.29
2018-08-24T01:51:01.472Z,18.34
2018-08-24T01:52:01.332Z,18.33
2018-08-24T01:53:54.163Z,18.29
2018-08-24T01:54:54.116Z,18.23
2018-08-24T01:56:46.927Z,18.25
2018-08-24T01:57:46.894Z,18.19
2018-08-24T01:59:39.708Z,18.26
2018-08-24T02:00:39.683Z,18.16
2018-08-24T02:02:32.504Z,18.16
2018-08-24T02:03:32.442Z,18.16
2018-08-24T02:05:25.262Z,18.19
2018-08-24T02:06:25.227Z,18.18
2018-08-24T02:08:18.547Z,18.26
2018-08-24T02:09:18.498Z,18.16
2018-08-24T02:11:11.301Z,18.16
2018-08-24T02:12:11.283Z,18.05
2018-08-24T02:14:04.097Z,18.13
2018-08-24T02:15:04.038Z,18.15
2018-08-24T02:16:56.878Z,17.98
2018-08-24T02:17:56.829Z,18.07
2018-08-24T02:19:49.637Z,17.95
2018-08-24T02:20:49.602Z,17.92
2018-08-24T02:22:42.426Z,17.92
2018-08-24T02:23:42.381Z,17.94
2018-08-24T02:25:35.209Z,17.86
2018-08-24T02:26:35.169Z,17.83
2018-08-24T02:28:28.492Z,17.89
2018-08-24T02:29:28.445Z,17.89
2018-08-24T02:31:21.361Z,17.85
2018-08-24T02:32:21.239Z,17.87
2018-08-24T02:34:15.074Z,17.92
2018-08-24T02:35:15.012Z,17.86
2018-08-24T02:37:07.820Z,17.85
2018-08-24T02:38:07.785Z,17.80
2018-08-24T02:40:00.622Z,17.74
2018-08-24T02:41:00.570Z,17.76
2018-08-24T02:42:53.395Z,17.76
2018-08-24T02:43:53.350Z,17.79
2018-08-24T02:45:46.186Z,17.74
2018-08-24T02:46:46.145Z,17.70
2018-08-24T02:48:39.439Z,17.68
2018-08-24T02:49:39.406Z,17.67
2018-08-24T02:51:32.244Z,17.65
2018-08-24T02:52:32.186Z,17.57
2018-08-24T02:54:25.521Z,17.70
2018-08-24T02:55:25.474Z,17.63
2018-08-24T02:57:18.301Z,17.64
2018-08-24T02:58:18.255Z,17.54
2018-08-24T03:00:11.574Z,17.60
2018-08-24T03:01:11.524Z,17.67
2018-08-24T03:03:04.351Z,17.56
2018-08-24T03:04:04.312Z,17.65
2018-08-24T03:05:57.149Z,17.65
2018-08-24T03:06:57.097Z,17.59
2018-08-24T03:08:49.903Z,17.59
2018-08-24T03:09:49.870Z,17.63
2018-08-24T03:11:42.687Z,17.59
2018-08-24T03:12:42.642Z,17.57
2018-08-24T03:14:35.462Z,17.56
2018-08-24T03:15:35.467Z,17.54
2018-08-24T03:17:28.247Z,17.54
2018-08-24T03:18:28.214Z,17.51
2018-08-24T03:20:21.537Z,17.46
2018-08-24T03:21:21.491Z,17.57
2018-08-24T03:23:14.300Z,17.49
2018-08-24T03:24:14.257Z,17.54
2018-08-24T03:26:07.083Z,17.60
2018-08-24T03:27:07.042Z,17.49
2018-08-24T03:28:59.852Z,17.44
2018-08-24T03:29:59.836Z,17.54
2018-08-24T03:31:52.667Z,17.48
2018-08-24T03:32:52.610Z,17.54
2018-08-24T03:34:45.415Z,17.48
2018-08-24T03:35:45.378Z,17.52
2018-08-24T03:37:38.209Z,17.46
2018-08-24T03:38:38.154Z,17.42
2018-08-24T03:40:30.976Z,17.42
2018-08-24T03:41:30.946Z,17.45
2018-08-24T03:43:23.787Z,17.56
2018-08-24T03:44:23.727Z,17.48
2018-08-24T03:46:16.532Z,17.34
2018-08-24T03:47:16.498Z,17.38
2018-08-24T03:49:09.324Z,17.38
2018-08-24T03:50:09.280Z,17.34
2018-08-24T03:52:02.112Z,17.31
2018-08-24T03:53:02.088Z,17.36
2018-08-24T03:54:54.872Z,17.41
2018-08-24T03:55:54.842Z,17.33
2018-08-24T03:57:47.664Z,17.44
2018-08-24T03:58:47.619Z,17.36
2018-08-24T04:00:40.908Z,17.38
2018-08-24T04:01:40.898Z,17.34
2018-08-24T04:03:33.707Z,17.31
2018-08-24T04:04:33.659Z,17.42
2018-08-24T04:06:26.466Z,17.39
2018-08-24T04:07:26.437Z,17.34
2018-08-24T04:09:19.267Z,17.42
2018-08-24T04:10:19.212Z,17.27
2018-08-24T04:12:12.027Z,17.27
2018-08-24T04:13:11.988Z,17.39
2018-08-24T04:15:04.812Z,17.30
2018-08-24T04:16:04.773Z,17.23
2018-08-24T04:17:57.589Z,17.19
2018-08-24T04:18:57.552Z,17.15
2018-08-24T04:20:50.361Z,17.22
2018-08-24T04:21:50.343Z,17.19
2018-08-24T04:23:43.158Z,17.36
2018-08-24T04:24:43.104Z,17.26
2018-08-24T04:26:35.899Z,17.27
2018-08-24T04:27:35.869Z,17.27
2018-08-24T04:29:29.205Z,17.24
2018-08-24T04:30:29.148Z,17.26
2018-08-24T04:32:21.958Z,17.27
2018-08-24T04:33:21.929Z,17.27
2018-08-24T04:35:14.750Z,17.30
2018-08-24T04:36:14.708Z,17.27
2018-08-24T04:38:07.518Z,17.24
2018-08-24T04:39:07.475Z,17.26
2018-08-24T04:41:00.318Z,17.24
2018-08-24T04:42:00.270Z,17.26
2018-08-24T04:43:53.063Z,17.33
2018-08-24T04:44:53.031Z,17.34
2018-08-24T04:46:45.853Z,17.38
2018-08-24T04:47:45.812Z,17.33
2018-08-24T04:49:38.626Z,17.33
2018-08-24T04:50:38.593Z,17.30
2018-08-24T04:52:31.413Z,17.38
2018-08-24T04:53:31.389Z,17.42
2018-08-24T04:55:24.684Z,17.34
2018-08-24T04:56:24.633Z,17.42
2018-08-24T04:58:18.071Z,17.41
2018-08-24T04:59:17.899Z,17.30
2018-08-24T05:01:10.723Z,17.33
2018-08-24T05:02:10.683Z,17.39
2018-08-24T05:04:03.527Z,17.56
2018-08-24T05:05:03.459Z,17.52
2018-08-24T05:06:56.284Z,17.48
2018-08-24T05:07:56.235Z,17.48
2018-08-24T05:09:49.049Z,17.44
2018-08-24T05:10:49.036Z,17.44
2018-08-24T05:12:41.849Z,17.52
2018-08-24T05:13:41.790Z,17.54
2018-08-24T05:15:34.610Z,17.56
2018-08-24T05:16:34.569Z,17.49
2018-08-24T05:18:27.886Z,17.52
2018-08-24T05:19:27.847Z,17.60
2018-08-24T05:21:20.720Z,17.59
2018-08-24T05:22:20.620Z,17.52
2018-08-24T05:24:13.949Z,17.56
2018-08-24T05:25:13.910Z,17.56
2018-08-24T05:27:06.847Z,17.57
2018-08-24T05:28:06.749Z,17.59
2018-08-24T05:29:59.506Z,17.60
2018-08-24T05:30:59.487Z,17.56
2018-08-24T05:32:52.282Z,17.64
2018-08-24T05:33:52.238Z,17.60
2018-08-24T05:35:45.084Z,17.65
2018-08-24T05:36:45.018Z,17.52
2018-08-24T05:38:37.844Z,17.51
2018-08-24T05:39:37.791Z,17.52
2018-08-24T05:41:30.634Z,17.57
2018-08-24T05:42:30.566Z,17.56
2018-08-24T05:44:23.387Z,17.74
2018-08-24T05:45:23.347Z,17.60
2018-08-24T05:47:16.142Z,17.59
2018-08-24T05:48:16.122Z,17.60
2018-08-24T05:50:08.931Z,17.64
2018-08-24T05:51:08.888Z,17.68
2018-08-24T05:53:01.721Z,17.67
2018-08-24T05:54:01.673Z,17.63
2018-08-24T05:55:54.492Z,17.64
2018-08-24T05:56:54.457Z,17.72
2018-08-24T05:58:47.269Z,17.78
2018-08-24T05:59:47.221Z,17.79
2018-08-24T06:01:40.029Z,17.82
2018-08-24T06:02:39.998Z,17.87
2018-08-24T06:04:32.834Z,17.89
2018-08-24T06:05:32.784Z,17.89
2018-08-24T06:07:25.593Z,17.89
2018-08-24T06:08:25.562Z,17.80
2018-08-24T06:10:18.388Z,17.90
2018-08-24T06:11:18.353Z,17.95
2018-08-24T06:13:11.177Z,17.85
2018-08-24T06:14:11.118Z,17.85
2018-08-24T06:16:03.933Z,17.82
2018-08-24T06:17:03.892Z,17.86
2018-08-24T06:18:56.720Z,17.89
2018-08-24T06:19:56.669Z,17.97
2018-08-24T06:21:49.475Z,17.92
2018-08-24T06:22:49.449Z,17.95
2018-08-24T06:24:42.293Z,18.01
2018-08-24T06:25:42.238Z,17.98
2018-08-24T06:27:35.048Z,18.00
2018-08-24T06:28:35.018Z,18.10
2018-08-24T06:30:27.843Z,18.13
2018-08-24T06:31:27.803Z,18.10
2018-08-24T06:33:20.615Z,17.98
2018-08-24T06:34:20.568Z,18.01
2018-08-24T06:36:13.404Z,18.10
2018-08-24T06:37:13.358Z,18.05
2018-08-24T06:39:06.168Z,18.00
2018-08-24T06:40:06.135Z,18.19
2018-08-24T06:41:59.024Z,18.08
2018-08-24T06:42:58.908Z,18.10
2018-08-24T06:44:52.235Z,18.04
2018-08-24T06:45:52.184Z,18.01
2018-08-24T06:47:45.092Z,17.97
2018-08-24T06:48:44.990Z,17.92
2018-08-24T06:50:37.790Z,18.08
2018-08-24T06:51:37.758Z,18.13
2018-08-24T06:53:30.648Z,18.10
2018-08-24T06:54:30.530Z,18.10
2018-08-24T06:56:23.363Z,18.11
2018-08-24T06:57:23.311Z,18.03
2018-08-24T06:59:16.114Z,18.10
2018-08-24T07:00:16.086Z,18.01
2018-08-24T07:02:08.945Z,18.10
2018-08-24T07:03:08.880Z,18.07
2018-08-24T07:05:01.681Z,18.10
2018-08-24T07:06:01.646Z,18.10
2018-08-24T07:07:54.475Z,18.20
2018-08-24T07:08:54.416Z,18.20
2018-08-24T07:10:47.246Z,18.28
2018-08-24T07:11:47.197Z,18.18
2018-08-24T07:13:40.502Z,18.15
2018-08-24T07:14:40.505Z,18.15
2018-08-24T07:16:33.815Z,18.11
2018-08-24T07:17:33.767Z,18.16
2018-08-24T07:19:26.581Z,18.25
2018-08-24T07:20:26.542Z,18.31
2018-08-24T07:22:19.863Z,18.33
2018-08-24T07:23:19.821Z,18.19
2018-08-24T07:25:13.135Z,18.29
2018-08-24T07:26:13.091Z,18.43
2018-08-24T07:28:05.935Z,18.41
2018-08-24T07:29:05.872Z,18.45
2018-08-24T07:30:58.686Z,18.45
2018-08-24T07:31:58.648Z,18.49
2018-08-24T07:33:51.476Z,18.49
2018-08-24T07:34:51.456Z,18.41
2018-08-24T07:36:44.251Z,18.41
2018-08-24T07:37:44.234Z,18.50
2018-08-24T07:39:37.526Z,18.35
2018-08-24T07:40:37.472Z,18.38
2018-08-24T07:42:30.304Z,18.37
2018-08-24T07:43:30.264Z,18.38
2018-08-24T07:45:23.072Z,18.37
2018-08-24T07:46:23.057Z,18.38
2018-08-24T07:48:15.864Z,18.41
2018-08-24T07:49:15.818Z,18.44
2018-08-24T07:51:09.126Z,18.38
2018-08-24T07:52:09.117Z,18.31
2018-08-24T07:54:02.420Z,18.43
2018-08-24T07:55:02.369Z,18.41
2018-08-24T07:56:55.206Z,18.34
2018-08-24T07:57:55.196Z,18.18
2018-08-24T07:59:49.330Z,18.25
2018-08-24T08:00:49.288Z,18.29
2018-08-24T08:02:42.592Z,18.38
2018-08-24T08:03:42.562Z,18.35
2018-08-24T08:05:35.384Z,18.15
2018-08-24T08:06:35.337Z,18.22
2018-08-24T08:08:28.177Z,18.28
2018-08-24T08:09:28.118Z,18.31
2018-08-24T08:11:21.540Z,18.33
2018-08-24T08:12:21.399Z,18.35
2018-08-24T08:14:14.737Z,18.35
2018-08-24T08:15:14.680Z,18.34
2018-08-24T08:17:07.975Z,18.37
2018-08-24T08:18:07.951Z,18.26
2018-08-24T08:20:00.781Z,18.44
2018-08-24T08:21:00.714Z,18.49
2018-08-24T08:22:53.535Z,18.23
2018-08-24T08:23:53.510Z,18.33
2018-08-24T08:25:46.822Z,18.38
2018-08-24T08:26:46.795Z,18.34
2018-08-24T08:28:39.595Z,18.35
2018-08-24T08:29:39.559Z,18.45
2018-08-24T08:31:32.389Z,18.55
2018-08-24T08:32:32.344Z,18.47
2018-08-24T08:34:25.188Z,18.47
2018-08-24T08:35:25.120Z,18.58
2018-08-24T08:37:17.934Z,18.68
2018-08-24T08:38:17.904Z,18.56
2018-08-24T08:40:10.736Z,18.53
2018-08-24T08:41:10.683Z,18.55
2018-08-24T08:43:03.490Z,18.56
2018-08-24T08:44:03.479Z,18.52
2018-08-24T08:45:56.790Z,18.52
2018-08-24T08:46:56.740Z,18.56
2018-08-24T08:48:49.548Z,18.56
2018-08-24T08:49:49.508Z,18.45
2018-08-24T08:51:42.346Z,18.53
2018-08-24T08:52:42.307Z,18.45
2018-08-24T08:54:35.126Z,18.49
2018-08-24T08:55:35.079Z,18.44
2018-08-24T08:57:27.900Z,18.44
2018-08-24T08:58:27.857Z,18.55
2018-08-24T09:00:21.175Z,18.74
2018-08-24T09:01:21.126Z,18.75
2018-08-24T09:03:13.953Z,19.00
2018-08-24T09:04:13.910Z,19.04
2018-08-24T09:06:06.815Z,19.07
2018-08-24T09:07:06.692Z,19.19
2018-08-24T09:08:59.501Z,19.31
2018-08-24T09:09:59.470Z,19.24
2018-08-24T09:11:52.362Z,19.26
2018-08-24T09:12:52.329Z,19.08
2018-08-24T09:14:45.099Z,19.15
2018-08-24T09:15:45.083Z,19.21
2018-08-24T09:17:38.510Z,19.44
2018-08-24T09:18:38.342Z,19.49
2018-08-24T09:20:31.196Z,19.58
2018-08-24T09:21:31.137Z,19.66
2018-08-24T09:23:23.967Z,19.74
2018-08-24T09:24:23.957Z,19.74
2018-08-24T09:26:17.233Z,19.89
2018-08-24T09:27:17.199Z,19.95
2018-08-24T09:29:10.508Z,19.88
2018-08-24T09:30:10.486Z,19.74
2018-08-24T09:32:03.821Z,19.66
2018-08-24T09:33:03.747Z,19.73
2018-08-24T09:34:57.077Z,20.10
2018-08-24T09:35:57.070Z,20.11
2018-08-24T09:37:50.456Z,20.19
2018-08-24T09:38:50.357Z,20.31
2018-08-24T09:40:43.677Z,20.10
2018-08-24T09:41:43.687Z,20.16
2018-08-24T09:43:36.978Z,20.22
2018-08-24T09:44:36.946Z,20.26
2018-08-24T09:46:30.263Z,20.34
2018-08-24T09:47:30.218Z,20.36
2018-08-24T09:49:23.599Z,20.29
2018-08-24T09:50:23.530Z,20.52
2018-08-24T09:52:16.337Z,20.69
2018-08-24T09:53:16.288Z,20.85
2018-08-24T09:55:09.108Z,20.90
2018-08-24T09:56:09.073Z,21.02
2018-08-24T09:58:01.898Z,21.12
2018-08-24T09:59:01.857Z,21.14
2018-08-24T10:00:54.675Z,21.42
2018-08-24T10:01:54.644Z,21.50
2018-08-24T10:03:50.601Z,21.67
2018-08-24T10:04:48.961Z,21.83
2018-08-24T10:06:42.278Z,22.11
2018-08-24T10:07:42.219Z,22.39
2018-08-24T10:09:35.555Z,23.43
2018-08-24T10:10:35.517Z,23.84
2018-08-24T10:12:28.971Z,23.92
2018-08-24T10:13:28.808Z,24.06
2018-08-24T10:15:22.654Z,24.02
2018-08-24T10:16:22.639Z,23.77
2018-08-24T10:18:15.935Z,23.13
2018-08-24T10:19:15.938Z,23.03
2018-08-24T10:21:09.212Z,22.87
2018-08-24T10:22:09.184Z,23.18
2018-08-24T10:24:02.094Z,23.44
2018-08-24T10:25:02.639Z,22.84
2018-08-24T10:26:55.369Z,23.05
2018-08-24T10:27:55.328Z,23.62
2018-08-24T10:29:48.771Z,24.06
2018-08-24T10:30:48.655Z,23.93
2018-08-24T10:32:42.961Z,24.02
2018-08-24T10:33:42.961Z,23.84
2018-08-24T10:35:37.260Z,23.88
2018-08-24T10:36:37.220Z,24.16
2018-08-24T10:38:30.595Z,23.93
2018-08-24T10:39:30.513Z,23.83
2018-08-24T10:41:23.320Z,23.98
2018-08-24T10:42:23.330Z,24.13
2018-08-24T10:44:16.650Z,24.70
2018-08-24T10:45:16.604Z,24.76
2018-08-24T10:47:09.993Z,24.66
2018-08-24T10:48:09.894Z,24.76
2018-08-24T10:50:03.262Z,24.57
2018-08-24T10:51:03.201Z,24.85
2018-08-24T10:52:56.056Z,25.21
2018-08-24T10:53:56.022Z,25.58
2018-08-24T10:55:48.986Z,25.85
2018-08-24T10:56:48.815Z,26.00
2018-08-24T10:58:42.153Z,25.33
2018-08-24T10:59:42.119Z,24.80
2018-08-24T11:01:34.990Z,24.10
2018-08-24T11:02:34.927Z,24.02
2018-08-24T11:04:27.810Z,24.13
2018-08-24T11:05:27.821Z,24.17
2018-08-24T11:07:21.099Z,23.96
2018-08-24T11:08:21.049Z,23.92
2018-08-24T11:10:14.359Z,23.73
2018-08-24T11:11:14.316Z,23.43
2018-08-24T11:13:07.141Z,23.28
2018-08-24T11:14:07.106Z,23.91
2018-08-24T11:16:00.440Z,23.92
2018-08-24T11:17:00.435Z,23.88
2018-08-24T11:18:53.720Z,23.86
2018-08-24T11:19:53.691Z,23.62
2018-08-24T11:21:46.522Z,23.66
2018-08-24T11:22:46.475Z,23.96
2018-08-24T11:24:39.322Z,24.08
2018-08-24T11:25:39.270Z,24.05
2018-08-24T11:27:32.113Z,24.84
2018-08-24T11:28:32.152Z,25.04
2018-08-24T11:30:24.901Z,24.99
2018-08-24T11:31:24.887Z,24.69
2018-08-24T11:33:18.200Z,24.98
2018-08-24T11:34:18.163Z,25.36
2018-08-24T11:36:11.115Z,25.65
2018-08-24T11:37:10.956Z,25.29
2018-08-24T11:39:04.311Z,24.66
2018-08-24T11:40:04.268Z,24.51
2018-08-24T11:41:57.627Z,24.66
2018-08-24T11:42:57.572Z,24.33
2018-08-24T11:44:50.409Z,23.68
2018-08-24T11:45:50.371Z,23.69
2018-08-24T11:47:43.228Z,23.56
2018-08-24T11:48:43.151Z,23.59
2018-08-24T11:50:36.474Z,24.01
2018-08-24T11:51:36.448Z,23.88
2018-08-24T11:53:29.778Z,24.10
2018-08-24T11:54:29.761Z,24.43
2018-08-24T11:56:23.619Z,24.84
2018-08-24T11:57:23.558Z,24.66
2018-08-24T11:59:16.878Z,24.05
2018-08-24T12:00:16.839Z,24.24
2018-08-24T12:02:09.664Z,24.39
2018-08-24T12:03:09.657Z,24.35
2018-08-24T12:05:03.463Z,23.87
2018-08-24T12:06:03.428Z,23.68
2018-08-24T12:07:56.782Z,23.91
2018-08-24T12:08:56.730Z,24.02
2018-08-24T12:10:51.053Z,24.48
2018-08-24T12:11:51.014Z,24.35
2018-08-24T12:13:44.477Z,24.32
2018-08-24T12:14:43.822Z,24.13
2018-08-24T12:16:37.127Z,24.11
2018-08-24T12:17:37.075Z,24.69
2018-08-24T12:19:30.444Z,24.92
2018-08-24T12:20:30.389Z,24.63
2018-08-24T12:22:23.686Z,24.74
2018-08-24T12:23:23.660Z,24.77
2018-08-24T12:25:16.512Z,24.78
2018-08-24T12:26:16.449Z,25.08
2018-08-24T12:28:09.820Z,25.14
2018-08-24T12:29:09.774Z,25.32
2018-08-24T12:31:02.635Z,25.44
2018-08-24T12:32:02.579Z,25.62
2018-08-24T12:33:56.010Z,25.87
2018-08-24T12:34:55.859Z,25.91
2018-08-24T12:36:49.200Z,25.26
2018-08-24T12:37:49.133Z,25.55
2018-08-24T12:39:43.464Z,26.37
2018-08-24T12:40:43.461Z,26.84
2018-08-24T12:42:38.009Z,26.77
2018-08-24T12:43:38.069Z,26.70
2018-08-24T12:45:31.278Z,26.84
2018-08-24T12:46:31.204Z,26.71
2018-08-24T12:48:24.533Z,26.68
2018-08-24T12:49:24.568Z,26.59
2018-08-24T12:51:17.844Z,26.28
2018-08-24T12:52:17.864Z,26.22
2018-08-24T12:54:12.151Z,26.60
2018-08-24T12:55:12.373Z,26.51
2018-08-24T12:57:06.526Z,26.05
2018-08-24T12:58:06.420Z,26.07
2018-08-24T12:59:59.872Z,25.69
2018-08-24T13:00:59.754Z,25.72
2018-08-24T13:02:53.036Z,25.65
2018-08-24T13:03:53.136Z,25.84
2018-08-24T13:05:47.356Z,25.80
2018-08-24T13:06:47.354Z,25.75
2018-08-24T13:08:40.704Z,26.16
2018-08-24T13:09:40.596Z,26.44
2018-08-24T13:11:33.424Z,25.98
2018-08-24T13:12:33.387Z,25.91
2018-08-24T13:14:26.220Z,25.65
2018-08-24T13:15:26.225Z,25.66
2018-08-24T13:17:19.656Z,25.14
2018-08-24T13:18:19.511Z,25.01
2018-08-24T13:20:12.802Z,24.61
2018-08-24T13:21:12.770Z,24.36
2018-08-24T13:23:06.142Z,24.70
2018-08-24T13:24:06.145Z,24.63
2018-08-24T13:25:58.950Z,24.38
2018-08-24T13:26:58.899Z,24.45
2018-08-24T13:28:52.315Z,24.45
2018-08-24T13:29:52.176Z,24.30
2018-08-24T13:31:45.600Z,24.33
2018-08-24T13:32:45.552Z,24.32
2018-08-24T13:34:39.761Z,24.20
2018-08-24T13:35:39.792Z,24.29
2018-08-24T13:37:32.591Z,24.20
2018-08-24T13:38:32.551Z,24.16
2018-08-24T13:40:26.864Z,23.86
2018-08-24T13:41:27.127Z,24.05
2018-08-24T13:43:20.201Z,23.96
2018-08-24T13:44:20.137Z,23.80
2018-08-24T13:46:13.622Z,23.69
2018-08-24T13:47:13.367Z,23.68
2018-08-24T13:49:08.300Z,23.93
2018-08-24T13:50:07.682Z,23.96
2018-08-24T13:52:00.478Z,23.87
2018-08-24T13:53:00.487Z,23.34
2018-08-24T13:54:54.024Z,23.27
2018-08-24T13:55:53.837Z,23.31
2018-08-24T13:57:46.609Z,23.28
2018-08-24T13:58:46.575Z,23.44
2018-08-24T14:00:39.843Z,23.41
2018-08-24T14:01:39.897Z,23.31
2018-08-24T14:03:33.228Z,23.34
2018-08-24T14:04:33.193Z,23.31
2018-08-24T14:06:27.487Z,23.05
2018-08-24T14:07:27.488Z,23.00
2018-08-24T14:09:20.800Z,22.72
2018-08-24T14:10:20.774Z,22.72
2018-08-24T14:12:14.682Z,22.65
2018-08-24T14:13:14.138Z,22.76
2018-08-24T14:15:08.217Z,22.87
2018-08-24T14:16:07.418Z,22.63
2018-08-24T14:18:00.634Z,22.50
2018-08-24T14:19:00.568Z,22.50
2018-08-24T14:20:53.970Z,22.54
2018-08-24T14:21:53.862Z,22.50
2018-08-24T14:24:12.204Z,22.50
2018-08-24T14:25:12.163Z,22.50
2018-08-24T14:27:04.968Z,22.50
2018-08-24T14:28:04.937Z,22.41
2018-08-24T14:29:57.772Z,22.32
2018-08-24T14:30:57.721Z,22.28
2018-08-24T14:32:50.539Z,22.23
2018-08-24T14:33:50.513Z,22.35
2018-08-24T14:35:43.345Z,22.18
2018-08-24T14:36:43.292Z,22.18
2018-08-24T14:38:36.120Z,22.14
2018-08-24T14:39:36.078Z,22.29
2018-08-24T14:41:29.034Z,22.50
2018-08-24T14:42:28.982Z,22.39
2018-08-24T14:44:21.821Z,22.36
2018-08-24T14:45:21.831Z,22.38
2018-08-24T14:47:14.593Z,22.28
2018-08-24T14:48:14.632Z,22.15
2018-08-24T14:50:07.368Z,22.17
2018-08-24T14:51:07.343Z,22.15
2018-08-24T14:53:00.169Z,22.35
2018-08-24T14:54:00.125Z,22.25
2018-08-24T14:55:52.935Z,22.17
2018-08-24T14:56:52.914Z,22.08
2018-08-24T14:58:45.758Z,21.99
2018-08-24T14:59:45.699Z,22.00
2018-08-24T15:01:38.514Z,21.89
2018-08-24T15:02:38.480Z,21.93
2018-08-24T15:04:31.456Z,21.98
2018-08-24T15:05:31.325Z,21.95
2018-08-24T15:07:24.124Z,22.15
2018-08-24T15:08:24.075Z,22.17
2018-08-24T15:10:16.918Z,22.36
2018-08-24T15:11:16.959Z,22.17
2018-08-24T15:13:09.704Z,22.26
2018-08-24T15:14:09.658Z,22.30
2018-08-24T15:16:02.485Z,21.99
2018-08-24T15:17:02.509Z,22.11
2018-08-24T15:18:55.351Z,22.00
2018-08-24T15:19:55.306Z,22.11
2018-08-24T15:21:48.129Z,22.04
2018-08-24T15:22:48.116Z,21.98
2018-08-24T15:24:40.975Z,21.70
2018-08-24T15:25:40.915Z,21.77
2018-08-24T15:27:33.725Z,21.85
2018-08-24T15:28:33.694Z,21.79
2018-08-24T15:30:26.525Z,21.70
2018-08-24T15:31:26.476Z,21.73
2018-08-24T15:33:19.318Z,21.50
2018-08-24T15:34:19.266Z,21.52
2018-08-24T15:36:12.080Z,21.39
2018-08-24T15:37:12.056Z,21.46
2018-08-24T15:39:04.884Z,21.55
2018-08-24T15:40:04.835Z,21.54
2018-08-24T15:41:57.656Z,21.43
2018-08-24T15:42:57.621Z,21.45
2018-08-24T15:44:50.484Z,21.46
2018-08-24T15:45:50.417Z,21.33
2018-08-24T15:47:43.226Z,21.35
2018-08-24T15:48:43.194Z,21.35
2018-08-24T15:50:36.028Z,21.29
2018-08-24T15:51:35.973Z,21.33
2018-08-24T15:53:28.794Z,21.40
2018-08-24T15:54:28.823Z,21.48
2018-08-24T15:56:21.586Z,21.33
2018-08-24T15:57:21.541Z,21.35
2018-08-24T15:59:14.365Z,21.33
2018-08-24T16:00:14.392Z,21.35
2018-08-24T16:02:07.142Z,21.21
2018-08-24T16:03:07.115Z,21.09
2018-08-24T16:04:59.962Z,21.06
2018-08-24T16:05:59.925Z,21.15
2018-08-24T16:07:52.736Z,21.18
2018-08-24T16:08:52.697Z,21.20
2018-08-24T16:10:45.537Z,21.21
2018-08-24T16:11:45.485Z,21.29
2018-08-24T16:13:38.305Z,21.29
2018-08-24T16:14:38.277Z,21.29
2018-08-24T16:16:31.101Z,21.39
2018-08-24T16:17:31.061Z,21.21
2018-08-24T16:19:23.872Z,21.17
2018-08-24T16:20:23.841Z,21.30
2018-08-24T16:22:16.666Z,21.14
2018-08-24T16:23:16.628Z,21.20
2018-08-24T16:25:09.476Z,21.29
2018-08-24T16:26:09.441Z,21.24
2018-08-24T16:28:02.282Z,21.21
2018-08-24T16:29:02.237Z,21.25
2018-08-24T16:30:55.053Z,21.25
2018-08-24T16:31:55.032Z,21.30
2018-08-24T16:33:47.853Z,21.00
2018-08-24T16:34:47.805Z,21.00
2018-08-24T16:36:40.641Z,21.11
2018-08-24T16:37:40.597Z,21.14
2018-08-24T16:39:33.402Z,21.21
2018-08-24T16:40:33.372Z,21.21
2018-08-24T16:42:26.191Z,21.11
2018-08-24T16:43:26.148Z,21.07
2018-08-24T16:45:18.974Z,21.12
2018-08-24T16:46:18.947Z,21.09
2018-08-24T16:48:11.777Z,21.14
2018-08-24T16:49:11.724Z,21.09
2018-08-24T16:51:04.547Z,21.02
2018-08-24T16:52:04.522Z,21.06
2018-08-24T16:53:57.487Z,21.00
2018-08-24T16:54:57.293Z,20.87
2018-08-24T16:56:50.114Z,20.95
2018-08-24T16:57:50.087Z,20.72
2018-08-24T16:59:42.926Z,20.67
2018-08-24T17:00:42.867Z,20.69
2018-08-24T17:02:35.712Z,20.80
2018-08-24T17:03:35.695Z,20.87
2018-08-24T17:05:28.501Z,20.87
2018-08-24T17:06:28.449Z,20.85
2018-08-24T17:08:21.268Z,20.84
2018-08-24T17:09:21.235Z,20.77
2018-08-24T17:11:14.036Z,20.72
2018-08-24T17:12:14.007Z,20.80
2018-08-24T17:14:06.847Z,20.81
2018-08-24T17:15:06.798Z,20.77
2018-08-24T17:16:59.614Z,20.72
2018-08-24T17:17:59.584Z,20.75
2018-08-24T17:19:52.424Z,20.78
2018-08-24T17:20:52.359Z,20.77
2018-08-24T17:22:45.178Z,20.75
2018-08-24T17:23:45.161Z,20.78
2018-08-24T17:25:37.975Z,20.70
2018-08-24T17:26:37.935Z,20.67
2018-08-24T17:28:30.762Z,20.77
2018-08-24T17:29:30.711Z,20.72
2018-08-24T17:31:23.540Z,20.52
2018-08-24T17:32:23.496Z,20.52
2018-08-24T17:34:16.313Z,20.56
2018-08-24T17:35:16.285Z,20.43
2018-08-24T17:37:09.108Z,20.37
2018-08-24T17:38:09.065Z,20.34
2018-08-24T17:40:01.877Z,20.41
2018-08-24T17:41:01.848Z,20.43
2018-08-24T17:42:54.678Z,20.34
2018-08-24T17:43:54.625Z,20.41
2018-08-24T17:45:47.465Z,20.34
2018-08-24T17:46:47.416Z,20.37
2018-08-24T17:48:40.244Z,20.48
2018-08-24T17:49:40.206Z,20.26
2018-08-24T17:51:33.039Z,20.41
2018-08-24T17:52:32.999Z,20.41
2018-08-24T17:54:25.910Z,20.40
2018-08-24T17:55:25.794Z,20.34
2018-08-24T17:57:18.623Z,20.39
2018-08-24T17:58:18.565Z,20.26
2018-08-24T18:00:11.387Z,20.37
2018-08-24T18:01:11.360Z,20.19
2018-08-24T18:03:04.187Z,20.24
2018-08-24T18:04:04.134Z,20.22
2018-08-24T18:05:56.957Z,20.11
2018-08-24T18:06:56.912Z,20.10
2018-08-24T18:08:49.741Z,20.06
2018-08-24T18:09:49.698Z,20.09
2018-08-24T18:11:42.500Z,20.14
2018-08-24T18:12:42.472Z,20.10
2018-08-24T18:14:35.317Z,20.10
2018-08-24T18:15:35.258Z,19.96
2018-08-24T18:17:28.091Z,20.06
2018-08-24T18:18:28.044Z,19.91
2018-08-24T18:20:20.846Z,19.88
2018-08-24T18:21:20.820Z,19.92
2018-08-24T18:23:13.655Z,19.86
2018-08-24T18:24:13.634Z,19.86
2018-08-24T18:26:06.441Z,19.85
2018-08-24T18:27:06.401Z,19.89
2018-08-24T18:28:59.220Z,19.86
2018-08-24T18:29:59.204Z,19.94
2018-08-24T18:31:51.996Z,19.86
2018-08-24T18:32:51.966Z,19.82
2018-08-24T18:34:44.824Z,19.88